Airfield :
LOGIN :

Register | Disclaimer

   EN    FR    IT 

 










Legend :    VFR   Marginal VFR   IFR   Intensive IFR   Very Intensive IFR
Visi :
Ceiling :
>= 8 km
>= 3000ft
5 to 8 km
1000 to 3000 ft
1500m to 5 km
500 to 1000 ft
800 to 1500m
200 to 500 ft
< 800m
< 200 ft
Symbols :   Thunderstorms  Fog  Heavy snow  Heavy precipitations  Wind > 20 kt
SIGMETs :     Misc.  Thunderstorms  Icing  Turbulence  Mountain Waves  Volcanic Ashes







- Airport Elevation : 37 ft


EHVL - Vlieland Heliport

CURRENT METAR :
  • 150955Z AUTO 17008KT 9999 OVC210 17/13 Q1010 BLU

EXPIRED METARs :
  • 150925Z AUTO 15007KT 9999 OVC220 17/13 Q1010 BLU
  • 150855Z AUTO 15010KT 9999 FEW230 16/13 Q1010 BLU
  • 150825Z AUTO 15012KT 9999 SCT100 BKN230 OVC340 16/14 Q1010 BLU
  • 150755Z AUTO 11008KT 9999 SCT110 OVC340 15/14 Q1010 BLU
  • 150725Z AUTO 10007KT 8000 BR OVC100 15/14 Q1009 BLU
  • 150709Z AUTO 09007KT 8000 BR OVC100 14/14 Q1009 BLU

Expired Forecast.
No reported NOTAMs for that airfield.



MET'MAP, your aeronautical weather chart ! - Copyright ORBIFLY December 2007 - Disclaimer

ORBIFLY MET'MAP TEAM :

Programming & Development : Alexandra Zaïnal
Concept & Development : Baudouin d'Aumeries
Co-Development & Prog : Marc-Olivier Méhu
Technical & hardware support : Manuel Goepfert

Contact : metmap@orbifly.com




SOURCES & CREDITS :

   NOAA